createdAt,value
2018-03-31T00:00:19.300Z,78.34
2018-03-31T00:02:46.266Z,78.30
2018-03-31T00:05:13.296Z,78.34
2018-03-31T00:07:40.345Z,77.60
2018-03-31T00:10:07.285Z,77.95
2018-03-31T00:12:34.238Z,78.19
2018-03-31T00:15:01.284Z,77.93
2018-03-31T00:17:28.227Z,76.91
2018-03-31T00:19:55.198Z,76.74
2018-03-31T00:22:26.031Z,76.67
2018-03-31T00:24:53.011Z,76.77
2018-03-31T00:27:19.958Z,77.03
2018-03-31T00:29:46.936Z,76.38
2018-03-31T00:32:13.881Z,76.25
2018-03-31T00:34:40.890Z,76.55
2018-03-31T00:37:07.895Z,76.55
2018-03-31T00:39:34.930Z,76.66
2018-03-31T00:42:01.878Z,76.46
2018-03-31T00:44:28.845Z,77.01
2018-03-31T00:46:55.791Z,76.96
2018-03-31T00:49:22.787Z,77.24
2018-03-31T00:51:49.736Z,77.25
2018-03-31T00:54:16.718Z,77.73
2018-03-31T00:56:43.756Z,77.75
2018-03-31T00:59:10.728Z,78.18
2018-03-31T01:01:37.662Z,78.88
2018-03-31T01:04:04.635Z,79.01
2018-03-31T01:06:31.580Z,79.41
2018-03-31T01:08:58.544Z,79.81
2018-03-31T01:11:25.490Z,79.49
2018-03-31T01:13:52.459Z,80.20
2018-03-31T01:16:19.400Z,79.87
2018-03-31T01:18:46.359Z,79.86
2018-03-31T01:21:13.319Z,79.93
2018-03-31T01:23:40.260Z,79.95
2018-03-31T01:26:07.232Z,80.25
2018-03-31T01:28:34.179Z,80.85
2018-03-31T01:31:01.308Z,80.85
2018-03-31T01:33:28.344Z,80.65
2018-03-31T01:35:55.312Z,81.26
2018-03-31T01:38:22.465Z,80.78
2018-03-31T01:40:49.436Z,81.16
2018-03-31T01:43:16.375Z,81.41
2018-03-31T01:45:43.341Z,81.48
2018-03-31T01:48:10.283Z,81.59
2018-03-31T01:50:37.249Z,81.61
2018-03-31T01:53:04.223Z,81.50
2018-03-31T01:55:31.271Z,81.91
2018-03-31T01:57:58.211Z,81.70
2018-03-31T02:00:25.171Z,82.09
2018-03-31T02:02:52.123Z,82.52
2018-03-31T02:05:19.152Z,82.86
2018-03-31T02:07:46.107Z,82.86
2018-03-31T02:10:13.074Z,83.53
2018-03-31T02:12:40.064Z,83.68
2018-03-31T02:15:07.031Z,83.42
2018-03-31T02:17:33.967Z,83.53
2018-03-31T02:20:00.948Z,83.51
2018-03-31T02:22:27.987Z,82.66
2018-03-31T02:24:54.968Z,83.12
2018-03-31T02:27:21.982Z,82.52
2018-03-31T02:29:48.967Z,82.43
2018-03-31T02:32:15.970Z,82.87
2018-03-31T02:34:42.925Z,82.37
2018-03-31T02:37:09.935Z,83.02
2018-03-31T02:39:36.900Z,82.79
2018-03-31T02:42:03.876Z,83.40
2018-03-31T02:44:30.872Z,83.28
2018-03-31T02:46:57.845Z,83.31
2018-03-31T02:49:24.778Z,83.43
2018-03-31T02:51:51.755Z,83.43
2018-03-31T02:54:18.708Z,83.33
2018-03-31T02:56:45.690Z,83.51
2018-03-31T02:59:12.698Z,83.57
2018-03-31T03:01:39.716Z,83.37
2018-03-31T03:04:06.661Z,83.72
2018-03-31T03:06:33.648Z,83.25
2018-03-31T03:09:00.610Z,83.15
2018-03-31T03:11:27.603Z,83.46
2018-03-31T03:13:54.543Z,83.89
2018-03-31T03:16:21.507Z,83.74
2018-03-31T03:18:48.459Z,83.93
2018-03-31T03:21:15.430Z,83.45
2018-03-31T03:23:42.436Z,83.50
2018-03-31T03:26:09.372Z,83.46
2018-03-31T03:28:36.335Z,83.17
2018-03-31T03:31:03.743Z,83.15
2018-03-31T03:33:30.730Z,82.44
2018-03-31T03:35:57.676Z,82.54
2018-03-31T03:38:24.683Z,82.73
2018-03-31T03:40:51.630Z,82.54
2018-03-31T03:43:18.592Z,82.40
2018-03-31T03:45:45.577Z,82.45
2018-03-31T03:48:12.562Z,82.39
2018-03-31T03:50:39.508Z,82.42
2018-03-31T03:53:06.475Z,81.57
2018-03-31T03:55:33.419Z,81.42
2018-03-31T03:58:00.379Z,81.71
2018-03-31T04:00:27.335Z,82.16
2018-03-31T04:02:54.379Z,82.26
2018-03-31T04:05:21.318Z,82.38
2018-03-31T04:07:48.283Z,82.48
2018-03-31T04:10:15.227Z,83.17
2018-03-31T04:12:42.218Z,83.46
2018-03-31T04:15:09.158Z,83.66
2018-03-31T04:17:36.132Z,83.69
2018-03-31T04:20:03.189Z,83.69
2018-03-31T04:22:30.211Z,83.34
2018-03-31T04:24:57.212Z,83.06
2018-03-31T04:27:24.179Z,82.98
2018-03-31T04:29:51.128Z,83.34
2018-03-31T04:32:18.071Z,83.71
2018-03-31T04:34:45.038Z,83.81
2018-03-31T04:37:11.983Z,84.04
2018-03-31T04:39:38.987Z,83.68
2018-03-31T04:42:05.931Z,83.64
2018-03-31T04:44:32.895Z,83.67
2018-03-31T04:46:59.970Z,83.95
2018-03-31T04:49:26.939Z,83.85
2018-03-31T04:51:53.883Z,84.27
2018-03-31T04:54:20.848Z,84.45
2018-03-31T04:56:47.919Z,84.96
2018-03-31T04:59:14.887Z,85.22
2018-03-31T05:01:41.837Z,85.41
2018-03-31T05:04:08.803Z,85.41
2018-03-31T05:06:35.783Z,85.32
2018-03-31T05:09:02.850Z,85.48
2018-03-31T05:11:29.807Z,85.41
2018-03-31T05:13:56.791Z,84.91
2018-03-31T05:16:23.735Z,84.53
2018-03-31T05:18:50.729Z,84.90
2018-03-31T05:21:17.676Z,85.51
2018-03-31T05:23:44.643Z,85.04
2018-03-31T05:26:11.587Z,84.75
2018-03-31T05:28:38.598Z,84.83
2018-03-31T05:31:05.539Z,84.44
2018-03-31T05:33:32.520Z,84.73
2018-03-31T05:35:59.476Z,84.62
2018-03-31T05:38:26.418Z,84.31
2018-03-31T05:40:53.396Z,84.65
2018-03-31T05:43:20.355Z,84.69
2018-03-31T05:45:47.361Z,84.64
2018-03-31T05:48:14.319Z,84.66
2018-03-31T05:50:41.288Z,84.48
2018-03-31T05:53:08.239Z,84.44
2018-03-31T05:55:35.203Z,83.93
2018-03-31T05:58:02.149Z,83.85
2018-03-31T06:00:29.117Z,83.73
2018-03-31T06:02:56.090Z,83.32
2018-03-31T06:05:23.113Z,82.79
2018-03-31T06:07:50.070Z,82.10
2018-03-31T06:10:17.052Z,81.49
2018-03-31T06:12:44.028Z,81.28
2018-03-31T06:15:11.104Z,81.27
2018-03-31T06:17:38.072Z,80.86
2018-03-31T06:20:05.031Z,80.56
2018-03-31T06:22:32.152Z,80.43
2018-03-31T06:24:59.183Z,79.78
2018-03-31T06:27:26.135Z,79.04
2018-03-31T06:29:53.099Z,78.87
2018-03-31T06:32:20.059Z,78.38
2018-03-31T06:34:47.046Z,77.98
2018-03-31T06:37:13.979Z,78.49
2018-03-31T06:39:40.935Z,77.75
2018-03-31T06:42:07.904Z,77.54
2018-03-31T06:44:35.900Z,77.64
2018-03-31T06:47:02.959Z,76.57
2018-03-31T06:49:29.949Z,75.86
2018-03-31T06:51:56.926Z,75.53
2018-03-31T06:54:23.920Z,75.83
2018-03-31T06:56:50.945Z,75.33
2018-03-31T06:59:17.938Z,74.46
2018-03-31T07:01:44.905Z,74.82
2018-03-31T07:04:11.931Z,73.95
2018-03-31T07:06:38.996Z,74.13
2018-03-31T07:09:06.023Z,73.63
2018-03-31T07:11:32.988Z,73.21
2018-03-31T07:14:00.000Z,73.09
2018-03-31T07:16:27.084Z,73.52
2018-03-31T07:18:54.029Z,73.53
2018-03-31T07:21:21.003Z,73.08
2018-03-31T07:23:47.958Z,72.67
2018-03-31T07:26:15.089Z,71.58
2018-03-31T07:28:42.048Z,71.46
2018-03-31T07:31:09.021Z,72.41
2018-03-31T07:33:35.964Z,71.81
2018-03-31T07:36:02.984Z,70.86
2018-03-31T07:38:30.009Z,71.60
2018-03-31T07:40:56.987Z,71.41
2018-03-31T07:43:23.987Z,71.23
2018-03-31T07:45:51.010Z,71.47
2018-03-31T07:48:17.964Z,71.22
2018-03-31T07:50:45.046Z,71.41
2018-03-31T07:53:11.991Z,70.72
2018-03-31T07:55:38.936Z,69.80
2018-03-31T07:58:06.002Z,70.55
2018-03-31T08:00:33.136Z,70.83
2018-03-31T08:03:00.104Z,69.34
2018-03-31T08:05:27.048Z,68.92
2018-03-31T08:07:54.029Z,69.60
2018-03-31T08:10:20.972Z,69.00
2018-03-31T08:12:47.951Z,69.07
2018-03-31T08:15:14.887Z,69.79
2018-03-31T08:17:41.955Z,68.62
2018-03-31T08:20:08.983Z,67.40
2018-03-31T08:22:35.968Z,66.80
2018-03-31T08:25:02.998Z,68.59
2018-03-31T08:27:29.986Z,66.24
2018-03-31T08:29:56.943Z,65.11
2018-03-31T08:32:23.911Z,65.11
2018-03-31T08:34:50.876Z,65.61
2018-03-31T08:37:17.851Z,65.13
2018-03-31T08:39:44.801Z,65.04
2018-03-31T08:42:11.785Z,64.33
2018-03-31T08:44:38.728Z,63.96
2018-03-31T08:47:05.708Z,63.92
2018-03-31T08:49:32.683Z,63.02
2018-03-31T08:51:59.659Z,63.86
2018-03-31T08:54:26.607Z,63.68
2018-03-31T08:56:53.598Z,63.24
2018-03-31T08:59:20.569Z,62.12
2018-03-31T09:01:47.540Z,61.63
2018-03-31T09:04:14.511Z,62.47
2018-03-31T09:06:41.475Z,61.35
2018-03-31T09:09:08.458Z,60.97
2018-03-31T09:11:35.419Z,60.57
2018-03-31T09:14:02.389Z,58.86
2018-03-31T09:16:29.347Z,60.05
2018-03-31T09:18:56.324Z,60.38
2018-03-31T09:21:23.356Z,58.86
2018-03-31T09:23:50.363Z,59.35
2018-03-31T09:26:17.334Z,58.53
2018-03-31T09:28:44.324Z,57.17
2018-03-31T09:31:11.279Z,56.75
2018-03-31T09:33:38.285Z,55.87
2018-03-31T09:36:05.247Z,56.40
2018-03-31T09:38:32.287Z,54.35
2018-03-31T09:40:59.260Z,55.61
2018-03-31T09:43:26.263Z,53.95
2018-03-31T09:45:53.207Z,55.55
2018-03-31T09:48:20.272Z,55.33
2018-03-31T09:50:47.219Z,55.72
2018-03-31T09:53:14.184Z,54.95
2018-03-31T09:55:41.132Z,53.99
2018-03-31T09:58:08.131Z,51.53
2018-03-31T10:00:36.089Z,52.40
2018-03-31T10:03:03.087Z,53.54
2018-03-31T10:05:30.062Z,52.42
2018-03-31T10:07:57.051Z,51.81
2018-03-31T10:10:24.047Z,51.19
2018-03-31T10:12:51.025Z,51.74
2018-03-31T10:15:18.019Z,51.28
2018-03-31T10:17:44.991Z,49.39
2018-03-31T10:20:11.958Z,48.11
2018-03-31T10:22:38.993Z,46.64
2018-03-31T10:25:05.932Z,50.13
2018-03-31T10:27:32.887Z,49.10
2018-03-31T10:29:59.876Z,48.95
2018-03-31T10:32:26.820Z,50.92
2018-03-31T10:34:53.793Z,51.05
2018-03-31T10:37:20.748Z,50.67
2018-03-31T10:39:47.748Z,50.67
2018-03-31T10:42:14.720Z,50.14
2018-03-31T10:44:41.682Z,50.23
2018-03-31T10:47:08.838Z,49.95
2018-03-31T10:49:35.864Z,51.00
2018-03-31T10:52:02.833Z,50.55
2018-03-31T10:54:29.817Z,51.59
2018-03-31T10:56:56.792Z,53.10
2018-03-31T10:59:23.867Z,51.74
2018-03-31T11:01:50.811Z,52.72
2018-03-31T11:04:17.808Z,51.91
2018-03-31T11:06:44.795Z,50.36
2018-03-31T11:09:11.851Z,49.93
2018-03-31T11:11:38.905Z,49.55
2018-03-31T11:14:06.050Z,50.10
2018-03-31T11:16:33.043Z,49.92
2018-03-31T11:18:59.999Z,47.95
2018-03-31T11:21:27.000Z,47.40
2018-03-31T11:23:54.093Z,46.39
2018-03-31T11:26:21.069Z,46.74
2018-03-31T11:28:48.013Z,46.35
2018-03-31T11:31:14.999Z,48.29
2018-03-31T11:33:41.939Z,46.79
2018-03-31T11:36:08.975Z,46.67
2018-03-31T11:38:35.918Z,45.63
2018-03-31T11:41:02.921Z,45.50
2018-03-31T11:43:29.883Z,46.02
2018-03-31T11:45:56.908Z,44.91
2018-03-31T11:48:23.908Z,44.56
2018-03-31T11:50:50.956Z,45.35
2018-03-31T11:53:17.933Z,45.63
2018-03-31T11:55:44.915Z,43.62
2018-03-31T11:58:11.997Z,44.68
2018-03-31T12:00:38.960Z,42.78
2018-03-31T12:03:05.923Z,43.13
2018-03-31T12:05:32.927Z,40.09
2018-03-31T12:07:59.866Z,40.86
2018-03-31T12:10:26.847Z,40.25
2018-03-31T12:12:53.836Z,38.56
2018-03-31T12:15:20.808Z,39.88
2018-03-31T12:17:47.752Z,37.67
2018-03-31T12:20:14.720Z,38.70
2018-03-31T12:22:41.801Z,36.49
2018-03-31T12:25:08.783Z,38.54
2018-03-31T12:27:35.764Z,37.15
2018-03-31T12:30:02.769Z,36.86
2018-03-31T12:32:29.757Z,38.58
2018-03-31T12:34:56.718Z,38.56
2018-03-31T12:37:23.696Z,39.64
2018-03-31T12:39:50.662Z,38.56
2018-03-31T12:42:17.645Z,39.65
2018-03-31T12:44:44.678Z,40.03
2018-03-31T12:47:11.640Z,39.55
2018-03-31T12:49:38.594Z,40.47
2018-03-31T12:52:05.564Z,41.24
2018-03-31T12:54:32.532Z,40.83
2018-03-31T12:56:59.528Z,41.77
2018-03-31T12:59:26.491Z,41.13
2018-03-31T13:01:53.496Z,42.31
2018-03-31T13:04:20.490Z,40.23
2018-03-31T13:06:47.472Z,40.35
2018-03-31T13:09:14.436Z,42.98
2018-03-31T13:11:41.422Z,41.12
2018-03-31T13:14:08.403Z,41.96
2018-03-31T13:16:35.383Z,39.94
2018-03-31T13:19:02.379Z,40.35
2018-03-31T13:21:29.417Z,40.63
2018-03-31T13:23:56.391Z,39.75
2018-03-31T13:26:23.360Z,37.84
2018-03-31T13:28:50.364Z,38.70
2018-03-31T13:31:17.303Z,36.11
2018-03-31T13:33:44.295Z,32.89
2018-03-31T13:36:11.253Z,31.72
2018-03-31T13:38:38.227Z,31.81
2018-03-31T13:41:05.209Z,35.03
2018-03-31T13:43:32.200Z,34.03
2018-03-31T13:45:59.187Z,31.98
2018-03-31T13:48:26.155Z,32.50
2018-03-31T13:50:53.108Z,34.30
2018-03-31T13:53:20.086Z,33.24
2018-03-31T13:55:47.055Z,34.07
2018-03-31T13:58:14.023Z,31.40
2018-03-31T14:00:40.992Z,32.00
2018-03-31T14:03:08.029Z,30.76
2018-03-31T14:05:35.022Z,28.37
2018-03-31T14:08:01.994Z,28.71
2018-03-31T14:10:28.943Z,30.48
2018-03-31T14:12:55.945Z,30.15
2018-03-31T14:15:22.979Z,29.23
2018-03-31T14:17:50.012Z,30.49
2018-03-31T14:20:17.032Z,31.47
2018-03-31T14:22:43.972Z,28.49
2018-03-31T14:25:10.942Z,26.61
2018-03-31T14:27:37.903Z,27.92
2018-03-31T14:30:05.062Z,29.77
2018-03-31T14:32:32.011Z,32.98
2018-03-31T14:34:58.998Z,30.83
2018-03-31T14:37:25.947Z,31.06
2018-03-31T14:39:52.924Z,32.68
2018-03-31T14:42:19.895Z,33.45
2018-03-31T14:44:46.862Z,34.95
2018-03-31T14:47:13.824Z,34.00
2018-03-31T14:49:40.800Z,32.86
2018-03-31T14:52:07.751Z,30.61
2018-03-31T14:54:34.726Z,30.04
2018-03-31T14:57:01.687Z,31.65
2018-03-31T14:59:28.715Z,33.44
2018-03-31T15:01:55.659Z,32.49
2018-03-31T15:04:22.631Z,34.52
2018-03-31T15:06:49.639Z,33.19
2018-03-31T15:09:16.640Z,33.19
2018-03-31T15:11:43.628Z,34.78
2018-03-31T15:14:11.624Z,35.30
2018-03-31T15:16:38.643Z,37.37
2018-03-31T15:19:05.661Z,36.23
2018-03-31T15:21:32.657Z,34.92
2018-03-31T15:23:59.707Z,35.14
2018-03-31T15:26:26.703Z,35.54
2018-03-31T15:28:53.667Z,35.50
2018-03-31T15:31:20.696Z,35.06
2018-03-31T15:33:47.804Z,33.83
2018-03-31T15:36:14.794Z,33.95
2018-03-31T15:38:41.749Z,36.61
2018-03-31T15:41:08.738Z,38.48
2018-03-31T15:43:35.698Z,37.14
2018-03-31T15:46:02.672Z,38.53
2018-03-31T15:48:29.619Z,37.68
2018-03-31T15:50:56.594Z,38.54
2018-03-31T15:53:23.552Z,37.70
2018-03-31T15:55:50.532Z,38.06
2018-03-31T15:58:17.512Z,36.78
2018-03-31T16:00:44.487Z,34.77
2018-03-31T16:03:11.431Z,37.00
2018-03-31T16:05:38.407Z,38.24
2018-03-31T16:08:05.419Z,39.43
2018-03-31T16:10:32.392Z,39.74
2018-03-31T16:12:59.367Z,36.54
2018-03-31T16:15:26.340Z,32.79
2018-03-31T16:17:53.307Z,30.34
2018-03-31T16:20:20.367Z,34.47
2018-03-31T16:22:47.342Z,38.66
2018-03-31T16:25:15.370Z,40.16
2018-03-31T16:27:42.347Z,42.61
2018-03-31T16:30:09.402Z,43.80
2018-03-31T16:32:36.384Z,44.25
2018-03-31T16:35:03.491Z,45.29
2018-03-31T16:37:30.467Z,45.75
2018-03-31T16:39:57.462Z,48.72
2018-03-31T16:42:24.579Z,47.86
2018-03-31T16:44:51.527Z,47.04
2018-03-31T16:47:18.505Z,49.11
2018-03-31T16:49:45.532Z,48.41
2018-03-31T16:52:12.612Z,46.96
2018-03-31T16:54:39.563Z,41.30
2018-03-31T16:57:06.551Z,41.40
2018-03-31T16:59:33.497Z,42.24
2018-03-31T17:02:00.471Z,43.91
2018-03-31T17:04:27.436Z,46.00
2018-03-31T17:06:54.403Z,46.76
2018-03-31T17:09:21.361Z,47.91
2018-03-31T17:11:48.487Z,48.26
2018-03-31T17:14:15.456Z,49.24
2018-03-31T17:16:42.480Z,49.90
2018-03-31T17:19:09.391Z,51.20
2018-03-31T17:21:36.360Z,52.06
2018-03-31T17:24:03.309Z,52.99
2018-03-31T17:26:30.304Z,53.57
2018-03-31T17:28:57.260Z,53.04
2018-03-31T17:31:24.212Z,53.93
2018-03-31T17:33:51.281Z,55.29
2018-03-31T17:36:18.229Z,56.25
2018-03-31T17:38:45.221Z,57.04
2018-03-31T17:41:12.172Z,58.01
2018-03-31T17:43:39.141Z,58.59
2018-03-31T17:46:06.084Z,58.55
2018-03-31T17:48:33.056Z,59.65
2018-03-31T17:51:00.022Z,59.75
2018-03-31T17:53:27.057Z,60.74
2018-03-31T17:55:53.974Z,60.85
2018-03-31T17:58:20.964Z,62.06
2018-03-31T18:00:47.936Z,62.53
2018-03-31T18:03:14.898Z,63.11
2018-03-31T18:05:41.860Z,62.83
2018-03-31T18:08:08.864Z,62.78
2018-03-31T18:10:35.807Z,63.14
2018-03-31T18:13:02.775Z,63.01
2018-03-31T18:15:29.723Z,63.82
2018-03-31T18:17:56.695Z,64.37
2018-03-31T18:20:23.644Z,65.01
2018-03-31T18:22:50.615Z,64.85
2018-03-31T18:25:17.604Z,64.72
2018-03-31T18:27:44.579Z,64.93
2018-03-31T18:30:11.524Z,64.94
2018-03-31T18:32:38.533Z,65.41
2018-03-31T18:35:05.485Z,66.57
2018-03-31T18:37:32.466Z,66.50
2018-03-31T18:39:59.429Z,65.63
2018-03-31T18:42:26.370Z,65.81
2018-03-31T18:44:53.351Z,65.61
2018-03-31T18:47:20.339Z,65.30
2018-03-31T18:49:47.304Z,65.78
2018-03-31T18:52:14.244Z,66.38
2018-03-31T18:54:41.216Z,66.26
2018-03-31T18:57:08.166Z,67.28
2018-03-31T18:59:35.136Z,68.07
2018-03-31T19:02:02.092Z,68.50
2018-03-31T19:04:29.076Z,68.79
2018-03-31T19:06:56.029Z,68.63
2018-03-31T19:09:23.088Z,68.57
2018-03-31T19:11:50.049Z,69.03
2018-03-31T19:14:18.085Z,69.88
2018-03-31T19:16:50.754Z,69.85
2018-03-31T19:19:17.725Z,70.18
2018-03-31T19:21:44.688Z,70.50
2018-03-31T19:24:11.851Z,70.84
2018-03-31T19:26:38.862Z,71.05
2018-03-31T19:29:05.833Z,70.81
2018-03-31T19:31:33.763Z,71.21
2018-03-31T19:34:00.736Z,71.64
2018-03-31T19:36:27.695Z,72.80
2018-03-31T19:38:54.699Z,72.62
2018-03-31T19:41:21.647Z,72.83
2018-03-31T19:43:50.608Z,72.81
2018-03-31T19:46:17.579Z,72.62
2018-03-31T19:48:44.540Z,73.01
2018-03-31T19:51:11.512Z,72.80
2018-03-31T19:53:38.638Z,73.49
2018-03-31T19:56:05.624Z,73.59
2018-03-31T19:58:32.637Z,74.15
2018-03-31T20:00:59.684Z,74.87
2018-03-31T20:03:26.643Z,74.98
2018-03-31T20:05:53.608Z,75.16
2018-03-31T20:08:20.648Z,75.36
2018-03-31T20:10:47.647Z,76.03
2018-03-31T20:13:14.595Z,76.78
2018-03-31T20:15:41.576Z,77.20
2018-03-31T20:18:08.512Z,77.59
2018-03-31T20:20:35.495Z,77.30
2018-03-31T20:23:02.485Z,77.23
2018-03-31T20:25:29.428Z,77.37
2018-03-31T20:27:56.379Z,77.73
2018-03-31T20:30:23.435Z,78.05
2018-03-31T20:32:50.387Z,78.66
2018-03-31T20:35:17.347Z,79.42
2018-03-31T20:37:44.293Z,79.47
2018-03-31T20:40:11.288Z,79.39
2018-03-31T20:42:38.308Z,80.02
2018-03-31T20:45:05.282Z,80.12
2018-03-31T20:47:32.247Z,80.43
2018-03-31T20:49:59.235Z,80.20
2018-03-31T20:52:26.230Z,79.77
2018-03-31T20:54:53.200Z,79.18
2018-03-31T20:57:20.180Z,78.77
2018-03-31T20:59:47.126Z,78.36
2018-03-31T21:02:14.108Z,78.38
2018-03-31T21:04:41.068Z,77.61
2018-03-31T21:07:08.044Z,77.32
2018-03-31T21:09:34.987Z,77.03
2018-03-31T21:12:02.769Z,76.94
2018-03-31T21:14:29.723Z,76.47
2018-03-31T21:16:56.692Z,76.41
2018-03-31T21:19:23.636Z,76.40
2018-03-31T21:21:50.603Z,77.01
2018-03-31T21:24:17.572Z,76.75
2018-03-31T21:26:44.543Z,76.86
2018-03-31T21:29:11.487Z,77.26
2018-03-31T21:31:38.452Z,78.19
2018-03-31T21:34:05.409Z,78.63
2018-03-31T21:36:32.378Z,78.80
2018-03-31T21:38:59.327Z,78.82
2018-03-31T21:41:26.296Z,78.74
2018-03-31T21:43:53.259Z,78.86
2018-03-31T21:46:20.236Z,79.00
2018-03-31T21:48:47.204Z,79.40
2018-03-31T21:51:14.178Z,80.05
2018-03-31T21:53:41.164Z,80.29
2018-03-31T21:56:08.109Z,80.66
2018-03-31T21:58:35.081Z,81.04
2018-03-31T22:01:02.033Z,81.35
2018-03-31T22:03:29.018Z,81.28
2018-03-31T22:05:56.028Z,81.20
2018-03-31T22:08:22.994Z,81.17
2018-03-31T22:10:49.992Z,80.95
2018-03-31T22:13:22.627Z,80.73
2018-03-31T22:15:49.597Z,80.38
2018-03-31T22:18:16.600Z,79.97
2018-03-31T22:20:45.531Z,78.53
2018-03-31T22:23:12.508Z,77.44
2018-03-31T22:25:39.476Z,77.20
2018-03-31T22:28:06.440Z,76.23
2018-03-31T22:30:34.327Z,75.50
2018-03-31T22:33:01.292Z,74.63
2018-03-31T22:35:30.329Z,74.90
2018-03-31T22:37:57.305Z,74.46
2018-03-31T22:40:24.256Z,74.35
2018-03-31T22:42:51.241Z,74.17
2018-03-31T22:45:18.199Z,74.61
2018-03-31T22:47:45.162Z,74.73
2018-03-31T22:50:12.104Z,75.29
2018-03-31T22:52:39.120Z,75.29
2018-03-31T22:55:06.088Z,74.78
2018-03-31T22:57:33.072Z,74.63
2018-03-31T23:00:00.051Z,73.96
2018-03-31T23:02:27.035Z,73.56
2018-03-31T23:04:54.092Z,72.49
2018-03-31T23:07:21.041Z,73.02
2018-03-31T23:09:48.093Z,73.07
2018-03-31T23:12:15.061Z,72.32
2018-03-31T23:14:42.032Z,71.24
2018-03-31T23:17:09.012Z,71.76
2018-03-31T23:19:35.984Z,71.72
2018-03-31T23:22:02.945Z,72.38
2018-03-31T23:24:29.943Z,73.11
2018-03-31T23:26:56.878Z,71.49
2018-03-31T23:29:23.963Z,71.41
2018-03-31T23:31:50.990Z,71.06
2018-03-31T23:34:17.971Z,69.20
2018-03-31T23:36:44.952Z,68.76
2018-03-31T23:39:11.919Z,68.36
2018-03-31T23:41:38.860Z,67.89
2018-03-31T23:44:05.819Z,67.77
2018-03-31T23:46:32.760Z,67.72
2018-03-31T23:48:59.723Z,68.11
2018-03-31T23:51:26.672Z,68.45
2018-03-31T23:53:53.643Z,68.41
2018-03-31T23:56:20.659Z,68.57
2018-03-31T23:58:47.752Z,68.78
